YXGU weather

Gunnedah Hospital Helipad
Gunnedah, New South Wales, Australia

Public forecast

Using degrees Celsius for public forecast. Weather courtesy of forecast.io.

METAR (pilot weather report)

Closest report is Tamworth Airport, 31.2 nm (57.8 km) ESE. Retrieved 2019/04/22 20:00 UTC (10 minutes ago):

YSTW 222000Z AUTO 17006KT 9999 // NCD 16/11 Q1025 RF00.0/000.0

TAF (pilot weather forecast)

Closest forecast is Tamworth Airport, 31.2 nm (57.8 km) ESE. Retrieved 2019/04/22 18:36 UTC (2 hours ago):

TAF TAF YSTW 221650Z 2218/2312 09008KT CAVOK